R. M. Thorstenson — KGCJ — position and weather

sailwx.info

Track history (hours):
 
Tides and Currents Weather Stations Pressure Air Temp Water Temp Dewpoint Dewpoint Depression Visibility Wind Speed Wind Dir Waves Ship Positions

R. M. Thorstenson

Owner: Icicle Vessel Holding, Inc., Seattle, WA. More information available from US FCC via Universal Licensing System and Coast Guard Vessel Documentation Center.

Last reported at 2015-Jun-11 02:09 UTC. Time now 2015-Aug-04 15:52 UTC.
Position N 58°18' W 136°18'.
Warning: this ship's position is 54 days out of date.

Type: Fishing. MMSI: 366577000.

Date/timePositionNaut miles runAvg speedWind from/ knotsBaromVisibWave heightAir tempDewpointWater temp
2015-Jun-11 02:09N 58°18' W 136°18'610.4
2015-Jun-11 01:33N 58°19' W 136°06'9 8.8
2015-Jun-11 00:33N 58°19' W 135°50'  
2015-Jun-08 18:32N 51°32' W 127°52'11 9.9
2015-Jun-08 17:28N 51°21' W 127°52'9 9.6
2015-Jun-08 16:33N 51°13' W 127°52'10 9.9
2015-Jun-08 15:33N 51°05' W 127°42'1111.0
2015-Jun-08 14:33N 50°57' W 127°29'1110.9
2015-Jun-08 13:33N 50°51' W 127°15'1110.8
2015-Jun-08 12:33N 50°45' W 127°00'1110.6
2015-Jun-08 11:32N 50°38' W 126°48'1110.6
2015-Jun-08 10:30N 50°30' W 126°35'92 9.9
2015-Jun-08 01:17N 49°41' W 124°36'3910.5
2015-Jun-07 21:31N 49°17' W 123°47'9 9.4
2015-Jun-07 20:34N 49°12' W 123°36'9 8.8
2015-Jun-07 19:33N 49°06' W 123°26'9 9.0
2015-Jun-07 18:33N 49°01' W 123°15'9 9.2
2015-Jun-07 17:33N 48°54' W 123°04'9 9.5
2015-Jun-07 16:33N 48°48' W 122°53'9 9.1
2015-Jun-07 15:33N 48°42' W 122°43'1010.0
2015-Jun-07 14:33N 48°32' W 122°45'1110.6
2015-Jun-07 13:33N 48°21' W 122°45'10 9.7
2015-Jun-07 12:31N 48°12' W 122°47'1010.0
2015-Jun-07 11:33N 48°04' W 122°38'1110.7
2015-Jun-07 10:33N 47°55' W 122°29'1110.9
2015-Jun-07 09:33N 47°44' W 122°26'4 3.9
2015-Jun-07 08:32N 47°41' W 122°25'0 0.1
2015-Jun-07 07:33N 47°41' W 122°25'4 3.6
2015-Jun-07 06:33N 47°44' W 122°25'0 0.3
2015-Jun-07 05:33N 47°44' W 122°25'3 3.2
2015-Jun-07 04:31N 47°41' W 122°25'1 1.5
2015-Jun-07 03:34N 47°40' W 122°24'3 2.5
2015-Jun-07 02:31N 47°39' W 122°20'0 0.0
2015-Jun-07 01:32N 47°39' W 122°20'0 0.0
2015-Jun-07 00:30N 47°39' W 122°20'0 0.0
2015-Jun-06 23:24N 47°39' W 122°20'0 0.0
2015-Jun-06 22:31N 47°39' W 122°20'0 0.0
2015-Jun-06 21:23N 47°39' W 122°20'0 0.0
2015-Jun-06 20:20N 47°39' W 122°20'0 0.0
2015-Jun-06 19:33N 47°39' W 122°20'0 0.0
2015-Jun-06 18:28N 47°39' W 122°20'0 0.0
2015-Jun-06 17:25N 47°39' W 122°20'0 0.0
2015-Jun-06 16:32N 47°39' W 122°20'0 0.0
2015-Jun-06 15:33N 47°39' W 122°20'0 0.0
2015-Jun-06 14:33N 47°39' W 122°20'0 0.0
2015-Jun-06 13:31N 47°39' W 122°20'0 0.0
2015-Jun-06 12:31N 47°39' W 122°20'0 0.0
2015-Jun-06 11:11N 47°39' W 122°20'0 0.0
2015-Jun-06 10:33N 47°39' W 122°20'0 0.0
2015-Jun-06 09:30N 47°39' W 122°20'0 0.0
2015-Jun-06 08:22N 47°39' W 122°20'0 0.0
2015-Jun-06 07:32N 47°39' W 122°20'0 0.0
2015-Jun-06 06:32N 47°39' W 122°20'0 0.0
2015-Jun-06 05:33N 47°39' W 122°20'0 0.0
2015-Jun-06 04:28N 47°39' W 122°20'0 0.0
2015-Jun-06 03:31N 47°39' W 122°20'0 0.0
2015-Jun-06 02:32N 47°39' W 122°20'0 0.0
2015-Jun-06 01:33N 47°39' W 122°20'0 0.0
2015-Jun-06 00:27N 47°39' W 122°20'0 0.0
2015-Jun-05 23:31N 47°39' W 122°20'0 0.0
2015-Jun-05 22:32N 47°39' W 122°20'0 0.0
2015-Jun-05 21:32N 47°39' W 122°20'0 0.0
2015-Jun-05 20:33N 47°39' W 122°20'0 0.0
2015-Jun-05 19:31N 47°39' W 122°20'0 0.0
2015-Jun-05 18:25N 47°39' W 122°20'0 0.0
2015-Jun-05 17:32N 47°39' W 122°20'0 0.0
2015-Jun-05 16:33N 47°39' W 122°20'0 0.0
2015-Jun-05 15:27N 47°39' W 122°20'0 0.0
2015-Jun-05 14:28N 47°39' W 122°20'0 0.0
2015-Jun-05 12:23N 47°39' W 122°20'0 0.0
2015-Jun-05 11:33N 47°39' W 122°20'0 0.0
2015-Jun-05 10:31N 47°39' W 122°20'0 0.0
2015-Jun-05 09:28N 47°39' W 122°20'0 0.0
2015-Jun-05 08:29N 47°39' W 122°20'0 0.0
2015-Jun-05 07:32N 47°39' W 122°20'0 0.0
2015-Jun-05 06:27N 47°39' W 122°20'0 0.0
2015-Jun-05 05:31N 47°39' W 122°20'0 0.0
2015-Jun-05 04:31N 47°39' W 122°20'0 0.0
2015-Jun-05 03:26N 47°39' W 122°20'0 0.0
2015-Jun-05 02:33N 47°39' W 122°20'0 0.0
2015-Jun-05 01:33N 47°39' W 122°20'0 0.0
2015-Jun-05 00:28N 47°39' W 122°20'0 0.0
2015-Jun-04 23:23N 47°39' W 122°20'0 0.0
2015-Jun-04 22:29N 47°39' W 122°20'0 0.0
2015-Jun-04 21:12N 47°39' W 122°20'0 0.0
2015-Jun-04 20:31N 47°39' W 122°20'0 0.0
2015-Jun-04 19:28N 47°39' W 122°20'0 0.0
2015-Jun-04 17:33N 47°39' W 122°20'0 0.0
2015-Jun-04 16:24N 47°39' W 122°20'0 0.0
2015-Jun-04 15:25N 47°39' W 122°20'0 0.0
2015-Jun-04 14:32N 47°39' W 122°20'0 0.0
2015-Jun-04 13:26N 47°39' W 122°20'0 0.0
2015-Jun-04 12:33N 47°39' W 122°20'0 0.0
2015-Jun-04 11:28N 47°39' W 122°20'0 0.0
2015-Jun-04 10:25N 47°39' W 122°20'0 0.0
2015-Jun-04 08:32N 47°39' W 122°20'0 0.0
2015-Jun-04 07:30N 47°39' W 122°20'0 0.0
2015-Jun-04 06:31N 47°39' W 122°20'0 0.0
2015-Jun-04 05:31N 47°39' W 122°20'0 0.0
2015-Jun-04 04:14N 47°39' W 122°20'0 0.0
2015-Jun-04 03:24N 47°39' W 122°20'0 0.0
2015-Jun-04 02:33N 47°39' W 122°20'0 0.0
2015-Jun-04 01:25N 47°39' W 122°20'0 0.0
2015-Jun-04 00:32N 47°39' W 122°20'0 0.0
2015-Jun-03 23:26N 47°39' W 122°20'0 0.0
2015-Jun-03 22:09N 47°39' W 122°20'0 0.0
2015-Jun-03 21:22N 47°39' W 122°20'0 0.0
2015-Jun-03 20:25N 47°39' W 122°20'0 0.0
2015-Jun-03 19:17N 47°39' W 122°20'0 0.0
2015-Jun-03 18:33N 47°39' W 122°20'0 0.0
2015-Jun-03 17:33N 47°39' W 122°20'0 0.0
2015-Jun-03 16:10N 47°39' W 122°20'0 0.0
2015-Jun-03 15:32N 47°39' W 122°20'0 0.0
2015-Jun-03 14:26N 47°39' W 122°20'0 0.0
2015-Jun-03 13:30N 47°39' W 122°20'0 0.0
2015-Jun-03 12:31N 47°39' W 122°20'0 0.0
2015-Jun-03 11:31N 47°39' W 122°20'0 0.0
2015-Jun-03 10:32N 47°39' W 122°20'0 0.0
2015-Jun-03 09:32N 47°39' W 122°20'0 0.0
2015-Jun-03 08:33N 47°39' W 122°20'0 0.0
2015-Jun-03 07:22N 47°39' W 122°20'0 0.0
2015-Jun-03 06:31N 47°39' W 122°20'0 0.0
2015-Jun-03 05:08N 47°39' W 122°20'0 0.0
2015-Jun-03 04:03N 47°39' W 122°20'0 0.0
2015-Jun-03 03:33N 47°39' W 122°20'0 0.0
2015-Jun-03 02:28N 47°39' W 122°20'0 0.0
2015-Jun-03 01:32N 47°39' W 122°20'0 0.0
2015-Jun-03 00:29N 47°39' W 122°20'0 0.0
2015-Jun-02 23:33N 47°39' W 122°20'0 0.0
2015-Jun-02 22:30N 47°39' W 122°20'0 0.0
2015-Jun-02 21:31N 47°39' W 122°20'0 0.0
2015-Jun-02 20:32N 47°39' W 122°20'0 0.0
2015-Jun-02 19:27N 47°39' W 122°20'0 0.0
2015-Jun-02 18:27N 47°39' W 122°20'0 0.0
2015-Jun-02 17:31N 47°39' W 122°20'0 0.0
2015-Jun-02 16:28N 47°39' W 122°20'0 0.0
2015-Jun-02 15:11N 47°39' W 122°20'0 0.0
2015-Jun-02 14:30N 47°39' W 122°20'0 0.0
2015-Jun-02 13:33N 47°39' W 122°20'0 0.0
2015-Jun-02 12:07N 47°39' W 122°20'0 0.0
2015-Jun-02 11:32N 47°39' W 122°20'0 0.0
2015-Jun-02 10:32N 47°39' W 122°20'0 0.0
2015-Jun-02 09:27N 47°39' W 122°20'0 0.0
2015-Jun-02 08:28N 47°39' W 122°20'0 0.0
2015-Jun-02 07:28N 47°39' W 122°20'0 0.0
2015-Jun-02 06:20N 47°39' W 122°20'0 0.0
2015-Jun-02 05:33N 47°39' W 122°20'0 0.0
2015-Jun-02 04:27N 47°39' W 122°20'0 0.0
2015-Jun-02 03:22N 47°39' W 122°20'0 0.0
2015-Jun-02 02:32N 47°39' W 122°20'0 0.0
2015-Jun-02 00:21N 47°39' W 122°20'0 0.0
2015-Jun-01 23:31N 47°39' W 122°20'0 0.0
2015-Jun-01 22:28N 47°39' W 122°20'0 0.0
2015-Jun-01 21:20N 47°39' W 122°20'0 0.0
2015-Jun-01 20:12N 47°39' W 122°20'0 0.0
2015-Jun-01 19:21N 47°39' W 122°20'0 0.0
2015-Jun-01 18:25N 47°39' W 122°20'0 0.0
2015-Jun-01 17:31N 47°39' W 122°20'0 0.0
2015-Jun-01 16:11N 47°39' W 122°20'0 0.0
2015-Jun-01 15:21N 47°39' W 122°20'0 0.0
2015-Jun-01 14:33N 47°39' W 122°20'0 0.0
2015-Jun-01 12:17N 47°39' W 122°20'0 0.0
2015-Jun-01 11:32N 47°39' W 122°20'0 0.0
2015-Jun-01 09:22N 47°39' W 122°20'0 0.0
2015-Jun-01 08:25N 47°39' W 122°20'0 0.0
2015-Jun-01 06:09N 47°39' W 122°20'0 0.0
2015-Jun-01 05:24N 47°39' W 122°20'0 0.0
2015-Jun-01 02:26N 47°39' W 122°20'  
Track history (hours):
 
Tides and Currents Weather Stations Pressure Air Temp Water Temp Dewpoint Dewpoint Depression Visibility Wind Speed Wind Dir Waves Ship Positions

R. M. Thorstenson

Owner: Icicle Vessel Holding, Inc., Seattle, WA. More information available from US FCC via Universal Licensing System and Coast Guard Vessel Documentation Center.

Last reported at 2015-Jun-11 02:09 UTC. Time now 2015-Aug-04 15:52 UTC.
Position N 58°18' W 136°18'.
Warning: this ship's position is 54 days out of date.

Type: Fishing. MMSI: 366577000.

Date/timePositionNaut miles runAvg speedWind from/ knotsBaromVisibWave heightAir tempDewpointWater temp
2015-Jun-11 02:09N 58°18' W 136°18'610.4
2015-Jun-11 01:33N 58°19' W 136°06'9 8.8
2015-Jun-11 00:33N 58°19' W 135°50'  
2015-Jun-08 18:32N 51°32' W 127°52'11 9.9
2015-Jun-08 17:28N 51°21' W 127°52'9 9.6
2015-Jun-08 16:33N 51°13' W 127°52'10 9.9
2015-Jun-08 15:33N 51°05' W 127°42'1111.0
2015-Jun-08 14:33N 50°57' W 127°29'1110.9
2015-Jun-08 13:33N 50°51' W 127°15'1110.8
2015-Jun-08 12:33N 50°45' W 127°00'1110.6
2015-Jun-08 11:32N 50°38' W 126°48'1110.6
2015-Jun-08 10:30N 50°30' W 126°35'92 9.9
2015-Jun-08 01:17N 49°41' W 124°36'3910.5
2015-Jun-07 21:31N 49°17' W 123°47'9 9.4
2015-Jun-07 20:34N 49°12' W 123°36'9 8.8
2015-Jun-07 19:33N 49°06' W 123°26'9 9.0
2015-Jun-07 18:33N 49°01' W 123°15'9 9.2
2015-Jun-07 17:33N 48°54' W 123°04'9 9.5
2015-Jun-07 16:33N 48°48' W 122°53'9 9.1
2015-Jun-07 15:33N 48°42' W 122°43'1010.0
2015-Jun-07 14:33N 48°32' W 122°45'1110.6
2015-Jun-07 13:33N 48°21' W 122°45'10 9.7
2015-Jun-07 12:31N 48°12' W 122°47'1010.0
2015-Jun-07 11:33N 48°04' W 122°38'1110.7
2015-Jun-07 10:33N 47°55' W 122°29'1110.9
2015-Jun-07 09:33N 47°44' W 122°26'4 3.9
2015-Jun-07 08:32N 47°41' W 122°25'0 0.1
2015-Jun-07 07:33N 47°41' W 122°25'4 3.6
2015-Jun-07 06:33N 47°44' W 122°25'0 0.3
2015-Jun-07 05:33N 47°44' W 122°25'3 3.2
2015-Jun-07 04:31N 47°41' W 122°25'1 1.5
2015-Jun-07 03:34N 47°40' W 122°24'3 2.5
2015-Jun-07 02:31N 47°39' W 122°20'0 0.0
2015-Jun-07 01:32N 47°39' W 122°20'0 0.0
2015-Jun-07 00:30N 47°39' W 122°20'0 0.0
2015-Jun-06 23:24N 47°39' W 122°20'0 0.0
2015-Jun-06 22:31N 47°39' W 122°20'0 0.0
2015-Jun-06 21:23N 47°39' W 122°20'0 0.0
2015-Jun-06 20:20N 47°39' W 122°20'0 0.0
2015-Jun-06 19:33N 47°39' W 122°20'0 0.0
2015-Jun-06 18:28N 47°39' W 122°20'0 0.0
2015-Jun-06 17:25N 47°39' W 122°20'0 0.0
2015-Jun-06 16:32N 47°39' W 122°20'0 0.0
2015-Jun-06 15:33N 47°39' W 122°20'0 0.0
2015-Jun-06 14:33N 47°39' W 122°20'0 0.0
2015-Jun-06 13:31N 47°39' W 122°20'0 0.0
2015-Jun-06 12:31N 47°39' W 122°20'0 0.0
2015-Jun-06 11:11N 47°39' W 122°20'0 0.0
2015-Jun-06 10:33N 47°39' W 122°20'0 0.0
2015-Jun-06 09:30N 47°39' W 122°20'0 0.0
2015-Jun-06 08:22N 47°39' W 122°20'0 0.0
2015-Jun-06 07:32N 47°39' W 122°20'0 0.0
2015-Jun-06 06:32N 47°39' W 122°20'0 0.0
2015-Jun-06 05:33N 47°39' W 122°20'0 0.0
2015-Jun-06 04:28N 47°39' W 122°20'0 0.0
2015-Jun-06 03:31N 47°39' W 122°20'0 0.0
2015-Jun-06 02:32N 47°39' W 122°20'0 0.0
2015-Jun-06 01:33N 47°39' W 122°20'0 0.0
2015-Jun-06 00:27N 47°39' W 122°20'0 0.0
2015-Jun-05 23:31N 47°39' W 122°20'0 0.0
2015-Jun-05 22:32N 47°39' W 122°20'0 0.0
2015-Jun-05 21:32N 47°39' W 122°20'0 0.0
2015-Jun-05 20:33N 47°39' W 122°20'0 0.0
2015-Jun-05 19:31N 47°39' W 122°20'0 0.0
2015-Jun-05 18:25N 47°39' W 122°20'0 0.0
2015-Jun-05 17:32N 47°39' W 122°20'0 0.0
2015-Jun-05 16:33N 47°39' W 122°20'0 0.0
2015-Jun-05 15:27N 47°39' W 122°20'0 0.0
2015-Jun-05 14:28N 47°39' W 122°20'0 0.0
2015-Jun-05 12:23N 47°39' W 122°20'0 0.0
2015-Jun-05 11:33N 47°39' W 122°20'0 0.0
2015-Jun-05 10:31N 47°39' W 122°20'0 0.0
2015-Jun-05 09:28N 47°39' W 122°20'0 0.0
2015-Jun-05 08:29N 47°39' W 122°20'0 0.0
2015-Jun-05 07:32N 47°39' W 122°20'0 0.0
2015-Jun-05 06:27N 47°39' W 122°20'0 0.0
2015-Jun-05 05:31N 47°39' W 122°20'0 0.0
2015-Jun-05 04:31N 47°39' W 122°20'0 0.0
2015-Jun-05 03:26N 47°39' W 122°20'0 0.0
2015-Jun-05 02:33N 47°39' W 122°20'0 0.0
2015-Jun-05 01:33N 47°39' W 122°20'0 0.0
2015-Jun-05 00:28N 47°39' W 122°20'0 0.0
2015-Jun-04 23:23N 47°39' W 122°20'0 0.0
2015-Jun-04 22:29N 47°39' W 122°20'0 0.0
2015-Jun-04 21:12N 47°39' W 122°20'0 0.0
2015-Jun-04 20:31N 47°39' W 122°20'0 0.0
2015-Jun-04 19:28N 47°39' W 122°20'0 0.0
2015-Jun-04 17:33N 47°39' W 122°20'0 0.0
2015-Jun-04 16:24N 47°39' W 122°20'0 0.0
2015-Jun-04 15:25N 47°39' W 122°20'0 0.0
2015-Jun-04 14:32N 47°39' W 122°20'0 0.0
2015-Jun-04 13:26N 47°39' W 122°20'0 0.0
2015-Jun-04 12:33N 47°39' W 122°20'0 0.0
2015-Jun-04 11:28N 47°39' W 122°20'0 0.0
2015-Jun-04 10:25N 47°39' W 122°20'0 0.0
2015-Jun-04 08:32N 47°39' W 122°20'0 0.0
2015-Jun-04 07:30N 47°39' W 122°20'0 0.0
2015-Jun-04 06:31N 47°39' W 122°20'0 0.0
2015-Jun-04 05:31N 47°39' W 122°20'0 0.0
2015-Jun-04 04:14N 47°39' W 122°20'0 0.0
2015-Jun-04 03:24N 47°39' W 122°20'0 0.0
2015-Jun-04 02:33N 47°39' W 122°20'0 0.0
2015-Jun-04 01:25N 47°39' W 122°20'0 0.0
2015-Jun-04 00:32N 47°39' W 122°20'0 0.0
2015-Jun-03 23:26N 47°39' W 122°20'0 0.0
2015-Jun-03 22:09N 47°39' W 122°20'0 0.0
2015-Jun-03 21:22N 47°39' W 122°20'0 0.0
2015-Jun-03 20:25N 47°39' W 122°20'0 0.0
2015-Jun-03 19:17N 47°39' W 122°20'0 0.0
2015-Jun-03 18:33N 47°39' W 122°20'0 0.0
2015-Jun-03 17:33N 47°39' W 122°20'0 0.0
2015-Jun-03 16:10N 47°39' W 122°20'0 0.0
2015-Jun-03 15:32N 47°39' W 122°20'0 0.0
2015-Jun-03 14:26N 47°39' W 122°20'0 0.0
2015-Jun-03 13:30N 47°39' W 122°20'0 0.0
2015-Jun-03 12:31N 47°39' W 122°20'0 0.0
2015-Jun-03 11:31N 47°39' W 122°20'0 0.0
2015-Jun-03 10:32N 47°39' W 122°20'0 0.0
2015-Jun-03 09:32N 47°39' W 122°20'0 0.0
2015-Jun-03 08:33N 47°39' W 122°20'0 0.0
2015-Jun-03 07:22N 47°39' W 122°20'0 0.0
2015-Jun-03 06:31N 47°39' W 122°20'0 0.0
2015-Jun-03 05:08N 47°39' W 122°20'0 0.0
2015-Jun-03 04:03N 47°39' W 122°20'0 0.0
2015-Jun-03 03:33N 47°39' W 122°20'0 0.0
2015-Jun-03 02:28N 47°39' W 122°20'0 0.0
2015-Jun-03 01:32N 47°39' W 122°20'0 0.0
2015-Jun-03 00:29N 47°39' W 122°20'0 0.0
2015-Jun-02 23:33N 47°39' W 122°20'0 0.0
2015-Jun-02 22:30N 47°39' W 122°20'0 0.0
2015-Jun-02 21:31N 47°39' W 122°20'0 0.0
2015-Jun-02 20:32N 47°39' W 122°20'0 0.0
2015-Jun-02 19:27N 47°39' W 122°20'0 0.0
2015-Jun-02 18:27N 47°39' W 122°20'0 0.0
2015-Jun-02 17:31N 47°39' W 122°20'0 0.0
2015-Jun-02 16:28N 47°39' W 122°20'0 0.0
2015-Jun-02 15:11N 47°39' W 122°20'0 0.0
2015-Jun-02 14:30N 47°39' W 122°20'0 0.0
2015-Jun-02 13:33N 47°39' W 122°20'0 0.0
2015-Jun-02 12:07N 47°39' W 122°20'0 0.0
2015-Jun-02 11:32N 47°39' W 122°20'0 0.0
2015-Jun-02 10:32N 47°39' W 122°20'0 0.0
2015-Jun-02 09:27N 47°39' W 122°20'0 0.0
2015-Jun-02 08:28N 47°39' W 122°20'0 0.0
2015-Jun-02 07:28N 47°39' W 122°20'0 0.0
2015-Jun-02 06:20N 47°39' W 122°20'0 0.0
2015-Jun-02 05:33N 47°39' W 122°20'0 0.0
2015-Jun-02 04:27N 47°39' W 122°20'0 0.0
2015-Jun-02 03:22N 47°39' W 122°20'0 0.0
2015-Jun-02 02:32N 47°39' W 122°20'0 0.0
2015-Jun-02 00:21N 47°39' W 122°20'0 0.0
2015-Jun-01 23:31N 47°39' W 122°20'0 0.0
2015-Jun-01 22:28N 47°39' W 122°20'0 0.0
2015-Jun-01 21:20N 47°39' W 122°20'0 0.0
2015-Jun-01 20:12N 47°39' W 122°20'0 0.0
2015-Jun-01 19:21N 47°39' W 122°20'0 0.0
2015-Jun-01 18:25N 47°39' W 122°20'0 0.0
2015-Jun-01 17:31N 47°39' W 122°20'0 0.0
2015-Jun-01 16:11N 47°39' W 122°20'0 0.0
2015-Jun-01 15:21N 47°39' W 122°20'0 0.0
2015-Jun-01 14:33N 47°39' W 122°20'0 0.0
2015-Jun-01 12:17N 47°39' W 122°20'0 0.0
2015-Jun-01 11:32N 47°39' W 122°20'0 0.0
2015-Jun-01 09:22N 47°39' W 122°20'0 0.0
2015-Jun-01 08:25N 47°39' W 122°20'0 0.0
2015-Jun-01 06:09N 47°39' W 122°20'0 0.0
2015-Jun-01 05:24N 47°39' W 122°20'0 0.0
2015-Jun-01 02:26N 47°39' W 122°20'  

Dump ship's entire track history